sensor_id;sensor_type;location;lat;lon;timestamp;pressure;altitude;pressure_sealevel;temperature;humidity
31538;BME280;18147;51.952;6.146;2023-04-01T00:00:30;99032.34;;;10.66;100.00
31538;BME280;18147;51.952;6.146;2023-04-01T00:02:56;99021.50;;;10.86;100.00
31538;BME280;18147;51.952;6.146;2023-04-01T00:05:22;99026.56;;;10.80;100.00
31538;BME280;18147;51.952;6.146;2023-04-01T00:07:49;99027.41;;;10.71;100.00
31538;BME280;18147;51.952;6.146;2023-04-01T00:10:16;99030.50;;;10.66;100.00
31538;BME280;18147;51.952;6.146;2023-04-01T00:12:41;99028.13;;;10.63;100.00
31538;BME280;18147;51.952;6.146;2023-04-01T00:15:09;99032.91;;;10.59;100.00
31538;BME280;18147;51.952;6.146;2023-04-01T00:17:35;99021.13;;;10.52;100.00
31538;BME280;18147;51.952;6.146;2023-04-01T00:20:01;99026.19;;;10.55;100.00
31538;BME280;18147;51.952;6.146;2023-04-01T00:22:28;99039.34;;;10.76;100.00
31538;BME280;18147;51.952;6.146;2023-04-01T00:24:54;99039.59;;;10.73;100.00
31538;BME280;18147;51.952;6.146;2023-04-01T00:27:20;99032.03;;;10.59;100.00
31538;BME280;18147;51.952;6.146;2023-04-01T00:29:46;99032.63;;;10.62;100.00
31538;BME280;18147;51.952;6.146;2023-04-01T00:32:14;99032.75;;;10.61;100.00
31538;BME280;18147;51.952;6.146;2023-04-01T00:34:40;99036.41;;;10.70;100.00
31538;BME280;18147;51.952;6.146;2023-04-01T00:37:07;99038.78;;;10.63;100.00
31538;BME280;18147;51.952;6.146;2023-04-01T00:39:34;99034.59;;;10.60;100.00
31538;BME280;18147;51.952;6.146;2023-04-01T00:42:03;99030.94;;;10.61;100.00
31538;BME280;18147;51.952;6.146;2023-04-01T00:44:31;99037.38;;;10.69;100.00
31538;BME280;18147;51.952;6.146;2023-04-01T00:46:58;99040.34;;;10.56;100.00
31538;BME280;18147;51.952;6.146;2023-04-01T00:49:31;99039.59;;;10.73;100.00
31538;BME280;18147;51.952;6.146;2023-04-01T00:52:01;99036.53;;;10.68;100.00
31538;BME280;18147;51.952;6.146;2023-04-01T00:54:28;99038.94;;;10.61;100.00
31538;BME280;18147;51.952;6.146;2023-04-01T00:56:59;99042.44;;;10.52;100.00
31538;BME280;18147;51.952;6.146;2023-04-01T00:59:30;99029.53;;;10.57;100.00
31538;BME280;18147;51.952;6.146;2023-04-01T01:01:57;99042.84;;;10.67;100.00
31538;BME280;18147;51.952;6.146;2023-04-01T01:04:25;99042.28;;;10.63;100.00
31538;BME280;18147;51.952;6.146;2023-04-01T01:06:56;99035.84;;;10.66;100.00
31538;BME280;18147;51.952;6.146;2023-04-01T01:12:40;99047.50;;;10.65;100.00
31538;BME280;18147;51.952;6.146;2023-04-01T01:18:03;99057.00;;;10.68;100.00
31538;BME280;18147;51.952;6.146;2023-04-01T01:29:14;99055.06;;;10.79;100.00
31538;BME280;18147;51.952;6.146;2023-04-01T01:37:43;99052.81;;;10.75;100.00
31538;BME280;18147;51.952;6.146;2023-04-01T01:40:11;99050.97;;;10.85;100.00
31538;BME280;18147;51.952;6.146;2023-04-01T01:42:45;99057.00;;;10.87;100.00
31538;BME280;18147;51.952;6.146;2023-04-01T01:45:18;99054.06;;;10.90;100.00
31538;BME280;18147;51.952;6.146;2023-04-01T01:47:45;99056.31;;;10.75;100.00
31538;BME280;18147;51.952;6.146;2023-04-01T01:50:13;99061.06;;;10.81;100.00
31538;BME280;18147;51.952;6.146;2023-04-01T01:52:39;99060.81;;;10.84;100.00
31538;BME280;18147;51.952;6.146;2023-04-01T01:55:25;99060.91;;;10.93;100.00
31538;BME280;18147;51.952;6.146;2023-04-01T01:57:52;99056.13;;;10.96;100.00
31538;BME280;18147;51.952;6.146;2023-04-01T02:00:19;99058.25;;;10.83;100.00
31538;BME280;18147;51.952;6.146;2023-04-01T02:02:47;99068.09;;;10.73;100.00
31538;BME280;18147;51.952;6.146;2023-04-01T02:05:28;99064.31;;;10.85;100.00
31538;BME280;18147;51.952;6.146;2023-04-01T02:08:10;99066.84;;;10.77;100.00
31538;BME280;18147;51.952;6.146;2023-04-01T02:10:41;99062.91;;;10.81;100.00
31538;BME280;18147;51.952;6.146;2023-04-01T02:13:17;99072.31;;;10.85;100.00
31538;BME280;18147;51.952;6.146;2023-04-01T02:15:47;99067.81;;;10.76;100.00
31538;BME280;18147;51.952;6.146;2023-04-01T02:18:15;99081.72;;;10.70;100.00
31538;BME280;18147;51.952;6.146;2023-04-01T02:20:44;99081.97;;;10.86;100.00
31538;BME280;18147;51.952;6.146;2023-04-01T02:23:11;99083.41;;;10.71;100.00
31538;BME280;18147;51.952;6.146;2023-04-01T02:25:38;99076.94;;;10.73;100.00
31538;BME280;18147;51.952;6.146;2023-04-01T02:28:07;99087.06;;;10.70;100.00
31538;BME280;18147;51.952;6.146;2023-04-01T02:30:36;99089.16;;;10.66;100.00
31538;BME280;18147;51.952;6.146;2023-04-01T02:33:06;99092.81;;;10.65;100.00
31538;BME280;18147;51.952;6.146;2023-04-01T02:35:34;99101.06;;;10.72;100.00
31538;BME280;18147;51.952;6.146;2023-04-01T02:38:01;99106.00;;;10.67;100.00
31538;BME280;18147;51.952;6.146;2023-04-01T02:40:27;99102.06;;;10.61;100.00
31538;BME280;18147;51.952;6.146;2023-04-01T02:42:52;99097.72;;;10.60;100.00
31538;BME280;18147;51.952;6.146;2023-04-01T02:45:19;99111.06;;;10.70;100.00
31538;BME280;18147;51.952;6.146;2023-04-01T02:47:45;99104.84;;;10.69;100.00
31538;BME280;18147;51.952;6.146;2023-04-01T02:50:11;99101.75;;;10.74;100.00
31538;BME280;18147;51.952;6.146;2023-04-01T02:52:37;99097.16;;;10.85;100.00
31538;BME280;18147;51.952;6.146;2023-04-01T02:55:03;99103.88;;;10.80;100.00
31538;BME280;18147;51.952;6.146;2023-04-01T02:57:33;99102.91;;;10.61;100.00
31538;BME280;18147;51.952;6.146;2023-04-01T02:59:59;99111.75;;;10.72;100.00
31538;BME280;18147;51.952;6.146;2023-04-01T03:02:24;99106.66;;;10.59;100.00
31538;BME280;18147;51.952;6.146;2023-04-01T03:04:50;99112.44;;;10.54;100.00
31538;BME280;18147;51.952;6.146;2023-04-01T03:07:15;99119.47;;;10.55;100.00
31538;BME280;18147;51.952;6.146;2023-04-01T03:09:41;99117.47;;;10.48;100.00
31538;BME280;18147;51.952;6.146;2023-04-01T03:12:06;99128.84;;;10.50;100.00
31538;BME280;18147;51.952;6.146;2023-04-01T03:14:42;99122.81;;;10.48;100.00
31538;BME280;18147;51.952;6.146;2023-04-01T03:17:07;99122.41;;;10.72;100.00
31538;BME280;18147;51.952;6.146;2023-04-01T03:19:33;99119.72;;;10.52;100.00
31538;BME280;18147;51.952;6.146;2023-04-01T03:22:06;99122.38;;;10.52;100.00
31538;BME280;18147;51.952;6.146;2023-04-01T03:24:32;99118.63;;;10.45;100.00
31538;BME280;18147;51.952;6.146;2023-04-01T03:27:01;99122.69;;;10.49;100.00
31538;BME280;18147;51.952;6.146;2023-04-01T03:29:26;99125.91;;;10.53;100.00
31538;BME280;18147;51.952;6.146;2023-04-01T03:31:55;99131.94;;;10.45;100.00
31538;BME280;18147;51.952;6.146;2023-04-01T03:34:25;99123.38;;;10.42;100.00
31538;BME280;18147;51.952;6.146;2023-04-01T03:36:52;99128.41;;;10.35;100.00
31538;BME280;18147;51.952;6.146;2023-04-01T03:39:19;99130.69;;;10.49;100.00
31538;BME280;18147;51.952;6.146;2023-04-01T03:41:45;99124.63;;;10.47;100.00
31538;BME280;18147;51.952;6.146;2023-04-01T03:44:11;99128.56;;;10.62;100.00
31538;BME280;18147;51.952;6.146;2023-04-01T03:46:37;99120.56;;;10.53;100.00
31538;BME280;18147;51.952;6.146;2023-04-01T03:49:06;99126.28;;;10.38;100.00
31538;BME280;18147;51.952;6.146;2023-04-01T03:51:37;99126.19;;;10.59;100.00
31538;BME280;18147;51.952;6.146;2023-04-01T03:54:04;99128.44;;;10.54;100.00
31538;BME280;18147;51.952;6.146;2023-04-01T03:56:39;99132.06;;;10.53;100.00
31538;BME280;18147;51.952;6.146;2023-04-01T03:59:06;99126.06;;;10.61;100.00
31538;BME280;18147;51.952;6.146;2023-04-01T04:01:33;99132.50;;;10.58;100.00
31538;BME280;18147;51.952;6.146;2023-04-01T04:03:59;99129.69;;;10.41;100.00
31538;BME280;18147;51.952;6.146;2023-04-01T04:06:27;99139.38;;;10.51;100.00
31538;BME280;18147;51.952;6.146;2023-04-01T04:08:56;99142.72;;;10.53;100.00
31538;BME280;18147;51.952;6.146;2023-04-01T04:11:22;99138.97;;;10.66;100.00
31538;BME280;18147;51.952;6.146;2023-04-01T04:13:51;99132.22;;;10.52;100.00
31538;BME280;18147;51.952;6.146;2023-04-01T04:16:18;99144.28;;;10.46;100.00
31538;BME280;18147;51.952;6.146;2023-04-01T04:18:49;99143.41;;;10.36;100.00
31538;BME280;18147;51.952;6.146;2023-04-01T04:21:16;99142.31;;;10.48;100.00
31538;BME280;18147;51.952;6.146;2023-04-01T04:23:46;99143.59;;;10.44;100.00
31538;BME280;18147;51.952;6.146;2023-04-01T04:26:14;99149.84;;;10.33;100.00
31538;BME280;18147;51.952;6.146;2023-04-01T04:28:41;99150.53;;;10.26;100.00
31538;BME280;18147;51.952;6.146;2023-04-01T04:31:07;99153.53;;;10.42;100.00
31538;BME280;18147;51.952;6.146;2023-04-01T04:33:34;99149.31;;;10.30;100.00
31538;BME280;18147;51.952;6.146;2023-04-01T04:36:01;99147.41;;;10.21;100.00
31538;BME280;18147;51.952;6.146;2023-04-01T04:38:27;99157.44;;;10.38;100.00
31538;BME280;18147;51.952;6.146;2023-04-01T04:40:57;99160.38;;;10.25;100.00
31538;BME280;18147;51.952;6.146;2023-04-01T04:43:22;99162.06;;;10.36;100.00
31538;BME280;18147;51.952;6.146;2023-04-01T04:45:50;99158.78;;;10.23;100.00
31538;BME280;18147;51.952;6.146;2023-04-01T04:48:18;99161.91;;;10.37;100.00
31538;BME280;18147;51.952;6.146;2023-04-01T04:50:49;99163.31;;;10.32;100.00
31538;BME280;18147;51.952;6.146;2023-04-01T04:53:18;99162.19;;;10.25;100.00
31538;BME280;18147;51.952;6.146;2023-04-01T04:55:49;99172.38;;;10.20;100.00
31538;BME280;18147;51.952;6.146;2023-04-01T04:58:36;99172.69;;;10.26;100.00
31538;BME280;18147;51.952;6.146;2023-04-01T05:01:10;99165.81;;;10.24;100.00
31538;BME280;18147;51.952;6.146;2023-04-01T05:03:38;99166.69;;;10.24;100.00
31538;BME280;18147;51.952;6.146;2023-04-01T05:06:05;99169.06;;;10.27;100.00
31538;BME280;18147;51.952;6.146;2023-04-01T05:08:31;99172.78;;;10.15;100.00
31538;BME280;18147;51.952;6.146;2023-04-01T05:10:58;99176.47;;;10.24;100.00
31538;BME280;18147;51.952;6.146;2023-04-01T05:13:25;99178.41;;;10.22;100.00
31538;BME280;18147;51.952;6.146;2023-04-01T05:15:51;99175.50;;;10.25;100.00
31538;BME280;18147;51.952;6.146;2023-04-01T05:18:16;99181.31;;;10.19;100.00
31538;BME280;18147;51.952;6.146;2023-04-01T05:20:50;99184.97;;;10.18;100.00
31538;BME280;18147;51.952;6.146;2023-04-01T05:23:17;99184.69;;;10.11;100.00
31538;BME280;18147;51.952;6.146;2023-04-01T05:25:43;99188.63;;;10.17;100.00
31538;BME280;18147;51.952;6.146;2023-04-01T05:28:10;99191.94;;;10.09;100.00
31538;BME280;18147;51.952;6.146;2023-04-01T05:30:36;99196.91;;;10.23;100.00
31538;BME280;18147;51.952;6.146;2023-04-01T05:33:22;99186.91;;;10.06;100.00
31538;BME280;18147;51.952;6.146;2023-04-01T05:35:48;99194.78;;;10.17;100.00
31538;BME280;18147;51.952;6.146;2023-04-01T05:38:14;99196.63;;;10.17;100.00
31538;BME280;18147;51.952;6.146;2023-04-01T05:40:42;99191.28;;;10.17;100.00
31538;BME280;18147;51.952;6.146;2023-04-01T05:43:08;99199.63;;;10.33;100.00
31538;BME280;18147;51.952;6.146;2023-04-01T05:45:34;99198.34;;;10.27;100.00
31538;BME280;18147;51.952;6.146;2023-04-01T05:48:01;99198.94;;;10.31;100.00
31538;BME280;18147;51.952;6.146;2023-04-01T05:50:36;99201.53;;;10.21;100.00
31538;BME280;18147;51.952;6.146;2023-04-01T05:53:01;99207.47;;;10.25;100.00
31538;BME280;18147;51.952;6.146;2023-04-01T05:55:27;99209.78;;;10.18;100.00
31538;BME280;18147;51.952;6.146;2023-04-01T05:57:53;99212.59;;;10.17;100.00
31538;BME280;18147;51.952;6.146;2023-04-01T06:00:23;99206.28;;;10.18;100.00
31538;BME280;18147;51.952;6.146;2023-04-01T06:02:49;99214.50;;;10.35;100.00
31538;BME280;18147;51.952;6.146;2023-04-01T06:05:23;99214.69;;;10.53;100.00
31538;BME280;18147;51.952;6.146;2023-04-01T06:07:57;99217.91;;;10.47;100.00
31538;BME280;18147;51.952;6.146;2023-04-01T06:10:38;99215.38;;;10.46;100.00
31538;BME280;18147;51.952;6.146;2023-04-01T06:13:17;99221.41;;;10.48;100.00
31538;BME280;18147;51.952;6.146;2023-04-01T06:24:22;99240.56;;;10.92;100.00
31538;BME280;18147;51.952;6.146;2023-04-01T06:36:02;99245.19;;;10.80;100.00
31538;BME280;18147;51.952;6.146;2023-04-01T06:44:13;99260.22;;;10.91;100.00
31538;BME280;18147;51.952;6.146;2023-04-01T06:56:32;99283.41;;;11.00;100.00
31538;BME280;18147;51.952;6.146;2023-04-01T06:59:10;99279.88;;;11.09;100.00
31538;BME280;18147;51.952;6.146;2023-04-01T07:01:42;99280.44;;;11.03;100.00
31538;BME280;18147;51.952;6.146;2023-04-01T07:04:16;99287.47;;;11.04;100.00
31538;BME280;18147;51.952;6.146;2023-04-01T07:06:56;99295.19;;;10.97;100.00
31538;BME280;18147;51.952;6.146;2023-04-01T07:09:32;99289.88;;;11.07;100.00
31538;BME280;18147;51.952;6.146;2023-04-01T07:15:25;99294.22;;;11.08;100.00
31538;BME280;18147;51.952;6.146;2023-04-01T07:18:11;99299.31;;;11.30;100.00
31538;BME280;18147;51.952;6.146;2023-04-01T07:20:40;99301.66;;;11.14;100.00
31538;BME280;18147;51.952;6.146;2023-04-01T07:23:15;99311.09;;;11.28;100.00
31538;BME280;18147;51.952;6.146;2023-04-01T07:26:18;99315.84;;;11.63;100.00
31538;BME280;18147;51.952;6.146;2023-04-01T07:29:12;99317.00;;;11.70;100.00
31538;BME280;18147;51.952;6.146;2023-04-01T07:32:04;99321.63;;;11.78;100.00
31538;BME280;18147;51.952;6.146;2023-04-01T07:35:00;99322.75;;;11.75;100.00
31538;BME280;18147;51.952;6.146;2023-04-01T07:43:11;99340.03;;;12.00;100.00
31538;BME280;18147;51.952;6.146;2023-04-01T07:46:22;99333.34;;;12.33;100.00
31538;BME280;18147;51.952;6.146;2023-04-01T07:49:58;99343.28;;;11.84;100.00
31538;BME280;18147;51.952;6.146;2023-04-01T07:52:08;99348.59;;;12.04;100.00
31538;BME280;18147;51.952;6.146;2023-04-01T07:54:50;99352.81;;;12.06;100.00
31538;BME280;18147;51.952;6.146;2023-04-01T07:57:32;99354.63;;;12.15;100.00
31538;BME280;18147;51.952;6.146;2023-04-01T08:06:24;99370.47;;;12.36;100.00
31538;BME280;18147;51.952;6.146;2023-04-01T08:09:05;99365.94;;;12.47;100.00
31538;BME280;18147;51.952;6.146;2023-04-01T08:15:39;99370.88;;;12.41;100.00
31538;BME280;18147;51.952;6.146;2023-04-01T08:21:21;99388.63;;;12.33;100.00
31538;BME280;18147;51.952;6.146;2023-04-01T08:23:48;99385.22;;;12.50;100.00
31538;BME280;18147;51.952;6.146;2023-04-01T08:26:34;99398.13;;;12.55;100.00
31538;BME280;18147;51.952;6.146;2023-04-01T08:29:14;99394.75;;;12.62;100.00
31538;BME280;18147;51.952;6.146;2023-04-01T08:32:06;99392.28;;;12.79;100.00
31538;BME280;18147;51.952;6.146;2023-04-01T08:34:39;99395.38;;;12.74;100.00
31538;BME280;18147;51.952;6.146;2023-04-01T08:37:15;99396.78;;;13.15;100.00
31538;BME280;18147;51.952;6.146;2023-04-01T08:39:48;99397.09;;;13.58;100.00
31538;BME280;18147;51.952;6.146;2023-04-01T08:42:45;99399.28;;;13.17;100.00
31538;BME280;18147;51.952;6.146;2023-04-01T08:56:54;99416.25;;;13.08;100.00
31538;BME280;18147;51.952;6.146;2023-04-01T09:11:22;99438.00;;;13.50;100.00
31538;BME280;18147;51.952;6.146;2023-04-01T09:20:54;99450.00;;;13.18;100.00
31538;BME280;18147;51.952;6.146;2023-04-01T09:23:43;99461.50;;;13.01;100.00
31538;BME280;18147;51.952;6.146;2023-04-01T09:26:38;99465.34;;;12.79;100.00
31538;BME280;18147;51.952;6.146;2023-04-01T09:40:55;99472.66;;;13.79;100.00
31538;BME280;18147;51.952;6.146;2023-04-01T09:44:18;99473.75;;;13.59;100.00
31538;BME280;18147;51.952;6.146;2023-04-01T09:49:57;99489.84;;;13.59;100.00
31538;BME280;18147;51.952;6.146;2023-04-01T10:04:52;99501.66;;;13.84;100.00
31538;BME280;18147;51.952;6.146;2023-04-01T10:10:41;99507.63;;;13.95;100.00
31538;BME280;18147;51.952;6.146;2023-04-01T10:30:29;99538.16;;;13.30;100.00
31538;BME280;18147;51.952;6.146;2023-04-01T10:48:12;99566.31;;;12.48;100.00
31538;BME280;18147;51.952;6.146;2023-04-01T10:51:04;99566.88;;;12.52;100.00
31538;BME280;18147;51.952;6.146;2023-04-01T10:58:29;99567.16;;;12.78;100.00
31538;BME280;18147;51.952;6.146;2023-04-01T11:10:26;99573.34;;;12.68;100.00
31538;BME280;18147;51.952;6.146;2023-04-01T11:24:05;99594.59;;;12.80;100.00
31538;BME280;18147;51.952;6.146;2023-04-01T11:47:04;99626.41;;;12.83;100.00
31538;BME280;18147;51.952;6.146;2023-04-01T11:55:31;99641.03;;;13.17;100.00
31538;BME280;18147;51.952;6.146;2023-04-01T12:04:17;99642.84;;;13.46;100.00
31538;BME280;18147;51.952;6.146;2023-04-01T12:18:22;99653.00;;;13.42;100.00
31538;BME280;18147;51.952;6.146;2023-04-01T12:26:59;99660.25;;;13.60;100.00
31538;BME280;18147;51.952;6.146;2023-04-01T12:39:03;99669.78;;;13.82;100.00
31538;BME280;18147;51.952;6.146;2023-04-01T12:41:39;99676.59;;;13.76;100.00
31538;BME280;18147;51.952;6.146;2023-04-01T12:52:10;99695.66;;;13.54;100.00
31538;BME280;18147;51.952;6.146;2023-04-01T12:55:08;99699.88;;;13.66;100.00
31538;BME280;18147;51.952;6.146;2023-04-01T13:15:12;99736.09;;;12.73;100.00
31538;BME280;18147;51.952;6.146;2023-04-01T13:20:52;99746.78;;;12.73;100.00
31538;BME280;18147;51.952;6.146;2023-04-01T13:23:24;99757.75;;;12.70;100.00
31538;BME280;18147;51.952;6.146;2023-04-01T13:28:40;99758.50;;;12.82;100.00
31538;BME280;18147;51.952;6.146;2023-04-01T13:42:29;99787.69;;;12.54;100.00
31538;BME280;18147;51.952;6.146;2023-04-01T13:45:13;99791.47;;;12.42;100.00
31538;BME280;18147;51.952;6.146;2023-04-01T14:07:12;99852.09;;;11.26;100.00
31538;BME280;18147;51.952;6.146;2023-04-01T14:16:04;99862.91;;;11.13;100.00
31538;BME280;18147;51.952;6.146;2023-04-01T14:21:32;99864.41;;;11.38;100.00
31538;BME280;18147;51.952;6.146;2023-04-01T14:24:18;99865.91;;;11.63;100.00
31538;BME280;18147;51.952;6.146;2023-04-01T14:27:24;99870.16;;;11.65;100.00
31538;BME280;18147;51.952;6.146;2023-04-01T14:33:11;99868.72;;;11.61;100.00
31538;BME280;18147;51.952;6.146;2023-04-01T14:36:08;99880.25;;;11.62;100.00
31538;BME280;18147;51.952;6.146;2023-04-01T14:48:36;99881.50;;;12.11;100.00
31538;BME280;18147;51.952;6.146;2023-04-01T14:53:43;99885.53;;;12.26;100.00
31538;BME280;18147;51.952;6.146;2023-04-01T14:56:41;99894.56;;;12.56;100.00
31538;BME280;18147;51.952;6.146;2023-04-01T15:01:47;99881.97;;;13.17;100.00
31538;BME280;18147;51.952;6.146;2023-04-01T15:04:34;99883.97;;;13.35;100.00
31538;BME280;18147;51.952;6.146;2023-04-01T15:09:59;99876.97;;;13.53;100.00
31538;BME280;18147;51.952;6.146;2023-04-01T15:15:43;99901.88;;;13.34;100.00
31538;BME280;18147;51.952;6.146;2023-04-01T15:18:23;99928.47;;;12.34;100.00
31538;BME280;18147;51.952;6.146;2023-04-01T15:21:22;99931.88;;;12.15;100.00
31538;BME280;18147;51.952;6.146;2023-04-01T15:26:42;99953.50;;;11.80;100.00
31538;BME280;18147;51.952;6.146;2023-04-01T15:32:19;99955.09;;;11.83;100.00
31538;BME280;18147;51.952;6.146;2023-04-01T15:35:25;99954.41;;;12.02;100.00
31538;BME280;18147;51.952;6.146;2023-04-01T15:43:46;99974.78;;;11.71;100.00
31538;BME280;18147;51.952;6.146;2023-04-01T15:46:48;99992.72;;;11.68;100.00
31538;BME280;18147;51.952;6.146;2023-04-01T15:49:38;99996.56;;;11.98;100.00
31538;BME280;18147;51.952;6.146;2023-04-01T16:00:23;100023.63;;;11.28;100.00
31538;BME280;18147;51.952;6.146;2023-04-01T16:11:53;100049.94;;;11.21;100.00
31538;BME280;18147;51.952;6.146;2023-04-01T16:14:32;100049.81;;;11.23;100.00
31538;BME280;18147;51.952;6.146;2023-04-01T16:22:38;100072.38;;;11.19;100.00
31538;BME280;18147;51.952;6.146;2023-04-01T16:25:44;100069.75;;;11.30;100.00
31538;BME280;18147;51.952;6.146;2023-04-01T16:28:29;100077.72;;;11.19;100.00
31538;BME280;18147;51.952;6.146;2023-04-01T16:34:07;100082.19;;;11.18;100.00
31538;BME280;18147;51.952;6.146;2023-04-01T16:37:03;100086.22;;;11.24;100.00
31538;BME280;18147;51.952;6.146;2023-04-01T16:42:40;100093.81;;;10.95;100.00
31538;BME280;18147;51.952;6.146;2023-04-01T16:48:05;100115.94;;;10.73;100.00
31538;BME280;18147;51.952;6.146;2023-04-01T16:50:55;100127.72;;;10.46;100.00
31538;BME280;18147;51.952;6.146;2023-04-01T16:53:42;100131.50;;;10.31;100.00
31538;BME280;18147;51.952;6.146;2023-04-01T16:56:21;100143.78;;;10.21;100.00
31538;BME280;18147;51.952;6.146;2023-04-01T16:59:07;100152.50;;;10.23;100.00
31538;BME280;18147;51.952;6.146;2023-04-01T17:07:29;100169.66;;;10.31;100.00
31538;BME280;18147;51.952;6.146;2023-04-01T17:13:25;100176.16;;;10.40;100.00
31538;BME280;18147;51.952;6.146;2023-04-01T17:22:07;100186.09;;;10.25;100.00
31538;BME280;18147;51.952;6.146;2023-04-01T17:35:18;100230.66;;;9.98;100.00
31538;BME280;18147;51.952;6.146;2023-04-01T17:40:48;100254.00;;;9.81;100.00
31538;BME280;18147;51.952;6.146;2023-04-01T17:45:58;100252.31;;;9.80;100.00
31538;BME280;18147;51.952;6.146;2023-04-01T17:48:41;100261.88;;;9.83;100.00
31538;BME280;18147;51.952;6.146;2023-04-01T17:57:08;100285.53;;;9.75;100.00
31538;BME280;18147;51.952;6.146;2023-04-01T17:59:47;100295.66;;;9.70;100.00
31538;BME280;18147;51.952;6.146;2023-04-01T18:05:17;100317.69;;;9.72;100.00
31538;BME280;18147;51.952;6.146;2023-04-01T18:10:27;100345.00;;;9.48;100.00
31538;BME280;18147;51.952;6.146;2023-04-01T18:21:25;100354.00;;;9.33;100.00
31538;BME280;18147;51.952;6.146;2023-04-01T18:26:48;100373.19;;;9.11;100.00
31538;BME280;18147;51.952;6.146;2023-04-01T18:32:26;100381.56;;;9.05;100.00
31538;BME280;18147;51.952;6.146;2023-04-01T18:41:12;100396.00;;;9.01;100.00
31538;BME280;18147;51.952;6.146;2023-04-01T18:46:45;100414.22;;;9.07;100.00
31538;BME280;18147;51.952;6.146;2023-04-01T18:49:23;100410.91;;;9.03;100.00
31538;BME280;18147;51.952;6.146;2023-04-01T18:51:58;100428.78;;;9.01;100.00
31538;BME280;18147;51.952;6.146;2023-04-01T18:54:32;100433.41;;;8.98;100.00
31538;BME280;18147;51.952;6.146;2023-04-01T18:57:17;100441.97;;;9.03;100.00
31538;BME280;18147;51.952;6.146;2023-04-01T19:00:03;100455.53;;;8.98;100.00
31538;BME280;18147;51.952;6.146;2023-04-01T19:02:53;100449.97;;;8.89;100.00
31538;BME280;18147;51.952;6.146;2023-04-01T19:05:31;100456.03;;;8.91;100.00
31538;BME280;18147;51.952;6.146;2023-04-01T19:11:06;100468.50;;;8.90;100.00
31538;BME280;18147;51.952;6.146;2023-04-01T19:16:46;100473.13;;;9.01;100.00
31538;BME280;18147;51.952;6.146;2023-04-01T19:21:55;100493.44;;;8.88;100.00
31538;BME280;18147;51.952;6.146;2023-04-01T19:24:41;100508.94;;;8.81;100.00
31538;BME280;18147;51.952;6.146;2023-04-01T19:36:14;100530.19;;;8.67;100.00
31538;BME280;18147;51.952;6.146;2023-04-01T19:44:04;100538.47;;;8.76;100.00
31538;BME280;18147;51.952;6.146;2023-04-01T19:47:09;100536.44;;;8.66;100.00
31538;BME280;18147;51.952;6.146;2023-04-01T19:52:35;100541.09;;;8.62;100.00
31538;BME280;18147;51.952;6.146;2023-04-01T19:55:29;100548.03;;;8.65;100.00
31538;BME280;18147;51.952;6.146;2023-04-01T20:00:48;100562.88;;;8.39;100.00
31538;BME280;18147;51.952;6.146;2023-04-01T20:06:20;100583.34;;;8.37;100.00
31538;BME280;18147;51.952;6.146;2023-04-01T20:14:55;100604.25;;;8.43;100.00
31538;BME280;18147;51.952;6.146;2023-04-01T20:20:18;100609.56;;;8.43;100.00
31538;BME280;18147;51.952;6.146;2023-04-01T20:25:27;100630.06;;;8.25;100.00
31538;BME280;18147;51.952;6.146;2023-04-01T20:36:16;100661.59;;;7.99;100.00
31538;BME280;18147;51.952;6.146;2023-04-01T20:44:12;100674.69;;;8.02;100.00
31538;BME280;18147;51.952;6.146;2023-04-01T20:47:06;100680.69;;;7.90;100.00
31538;BME280;18147;51.952;6.146;2023-04-01T20:49:46;100690.97;;;7.96;100.00
31538;BME280;18147;51.952;6.146;2023-04-01T20:52:49;100683.84;;;7.97;100.00
31538;BME280;18147;51.952;6.146;2023-04-01T20:55:36;100689.50;;;7.91;100.00
31538;BME280;18147;51.952;6.146;2023-04-01T21:04:08;100720.59;;;7.89;100.00
31538;BME280;18147;51.952;6.146;2023-04-01T21:06:51;100716.63;;;7.80;100.00
31538;BME280;18147;51.952;6.146;2023-04-01T21:23:15;100760.63;;;7.68;100.00
31538;BME280;18147;51.952;6.146;2023-04-01T21:26:50;100776.94;;;7.61;100.00
31538;BME280;18147;51.952;6.146;2023-04-01T21:32:13;100772.91;;;7.53;100.00
31538;BME280;18147;51.952;6.146;2023-04-01T21:58:03;100817.19;;;7.51;100.00
31538;BME280;18147;51.952;6.146;2023-04-01T22:01:05;100822.81;;;7.45;100.00
31538;BME280;18147;51.952;6.146;2023-04-01T22:09:37;100842.88;;;7.34;100.00
31538;BME280;18147;51.952;6.146;2023-04-01T22:12:22;100839.97;;;7.21;100.00
31538;BME280;18147;51.952;6.146;2023-04-01T22:15:04;100855.84;;;7.40;100.00
31538;BME280;18147;51.952;6.146;2023-04-01T22:17:40;100864.78;;;7.20;100.00
31538;BME280;18147;51.952;6.146;2023-04-01T22:25:34;100865.94;;;7.32;100.00
31538;BME280;18147;51.952;6.146;2023-04-01T22:28:09;100886.09;;;7.36;100.00
31538;BME280;18147;51.952;6.146;2023-04-01T22:30:59;100878.97;;;7.19;100.00
31538;BME280;18147;51.952;6.146;2023-04-01T22:33:46;100880.78;;;7.18;100.00
31538;BME280;18147;51.952;6.146;2023-04-01T22:49:59;100911.75;;;6.99;100.00
31538;BME280;18147;51.952;6.146;2023-04-01T22:52:41;100916.03;;;7.01;100.00
31538;BME280;18147;51.952;6.146;2023-04-01T22:57:48;100934.38;;;6.87;100.00
31538;BME280;18147;51.952;6.146;2023-04-01T23:00:47;100932.72;;;6.85;100.00
31538;BME280;18147;51.952;6.146;2023-04-01T23:06:17;100958.22;;;6.87;100.00
31538;BME280;18147;51.952;6.146;2023-04-01T23:09:07;100958.38;;;6.84;100.00
31538;BME280;18147;51.952;6.146;2023-04-01T23:11:43;100960.81;;;6.89;100.00
31538;BME280;18147;51.952;6.146;2023-04-01T23:16:57;100977.56;;;6.70;100.00
31538;BME280;18147;51.952;6.146;2023-04-01T23:19:46;100979.03;;;6.57;100.00
31538;BME280;18147;51.952;6.146;2023-04-01T23:25:26;100992.50;;;6.53;100.00
31538;BME280;18147;51.952;6.146;2023-04-01T23:35:58;101009.56;;;6.45;100.00